createdAt,value
2023-04-16T00:00:22.433Z,54
2023-04-16T00:01:52.877Z,54
2023-04-16T00:03:23.419Z,54
2023-04-16T00:04:53.706Z,54
2023-04-16T00:06:24.008Z,54
2023-04-16T00:07:54.394Z,54
2023-04-16T00:09:24.833Z,55
2023-04-16T00:10:55.165Z,55
2023-04-16T00:12:25.568Z,54
2023-04-16T00:13:55.991Z,55
2023-04-16T00:15:26.443Z,54
2023-04-16T00:16:56.884Z,55
2023-04-16T00:18:27.228Z,55
2023-04-16T00:19:57.574Z,54
2023-04-16T00:21:28.020Z,55
2023-04-16T00:22:58.378Z,54
2023-04-16T00:24:28.824Z,55
2023-04-16T00:25:59.272Z,55
2023-04-16T00:28:01.695Z,55
2023-04-16T00:29:32.099Z,55
2023-04-16T00:31:02.535Z,55
2023-04-16T00:32:32.960Z,55
2023-04-16T00:34:03.785Z,55
2023-04-16T00:35:34.249Z,55
2023-04-16T00:37:04.611Z,56
2023-04-16T00:38:34.938Z,56
2023-04-16T00:40:05.392Z,55
2023-04-16T00:41:35.812Z,55
2023-04-16T00:43:06.219Z,56
2023-04-16T00:44:36.612Z,55
2023-04-16T00:46:07.012Z,56
2023-04-16T00:48:09.405Z,56
2023-04-16T00:49:39.631Z,55
2023-04-16T00:51:10.098Z,55
2023-04-16T00:53:12.496Z,56
2023-04-16T00:54:42.933Z,56
2023-04-16T00:56:13.400Z,56
2023-04-16T00:57:43.788Z,56
2023-04-16T00:59:14.201Z,56
2023-04-16T01:00:44.564Z,56
2023-04-16T01:02:14.990Z,56
2023-04-16T01:03:45.338Z,56
2023-04-16T01:05:15.658Z,56
2023-04-16T01:06:46.029Z,56
2023-04-16T01:08:48.473Z,56
2023-04-16T01:10:18.885Z,56
2023-04-16T01:11:49.281Z,56
2023-04-16T01:13:19.620Z,57
2023-04-16T01:14:50.047Z,57
2023-04-16T01:16:20.498Z,57
2023-04-16T01:17:50.868Z,56
2023-04-16T01:19:21.299Z,57
2023-04-16T01:20:51.652Z,56
2023-04-16T01:22:54.091Z,58
2023-04-16T01:24:24.492Z,57
2023-04-16T01:25:54.902Z,57
2023-04-16T01:27:25.273Z,56
2023-04-16T01:28:55.569Z,57
2023-04-16T01:30:25.969Z,57
2023-04-16T01:31:56.413Z,57
2023-04-16T01:33:26.824Z,57
2023-04-16T01:34:57.133Z,56
2023-04-16T01:36:27.485Z,57
2023-04-16T01:37:57.876Z,57
2023-04-16T01:39:28.280Z,57
2023-04-16T01:40:58.726Z,57
2023-04-16T01:42:29.186Z,57
2023-04-16T01:44:31.442Z,57
2023-04-16T01:46:33.936Z,57
2023-04-16T01:50:12.082Z,57
2023-04-16T01:51:42.549Z,57
2023-04-16T01:53:44.979Z,57
2023-04-16T01:55:15.392Z,57
2023-04-16T01:56:45.739Z,57
2023-04-16T01:58:16.156Z,57
2023-04-16T01:59:46.540Z,57
2023-04-16T02:01:16.897Z,57
2023-04-16T02:02:47.377Z,57
2023-04-16T02:04:17.598Z,57
2023-04-16T02:05:48.028Z,57
2023-04-16T02:07:18.490Z,57
2023-04-16T02:09:20.922Z,58
2023-04-16T02:10:51.315Z,57
2023-04-16T02:12:21.678Z,57
2023-04-16T02:13:52.091Z,57
2023-04-16T02:15:22.478Z,57
2023-04-16T02:16:52.919Z,57
2023-04-16T02:18:23.269Z,57
2023-04-16T02:19:53.532Z,58
2023-04-16T02:21:23.911Z,58
2023-04-16T02:23:26.315Z,57
2023-04-16T02:24:56.756Z,57
2023-04-16T02:26:27.207Z,58
2023-04-16T02:27:57.567Z,58
2023-04-16T02:29:27.944Z,57
2023-04-16T02:30:58.324Z,58
2023-04-16T02:32:28.772Z,58
2023-04-16T02:33:59.153Z,58
2023-04-16T02:35:29.401Z,58
2023-04-16T02:36:59.782Z,58
2023-04-16T02:38:30.204Z,58
2023-04-16T02:40:00.621Z,57
2023-04-16T02:41:30.953Z,58
2023-04-16T02:43:01.414Z,58
2023-04-16T02:44:31.813Z,58
2023-04-16T02:46:02.192Z,58
2023-04-16T02:47:32.463Z,58
2023-04-16T02:49:02.862Z,58
2023-04-16T02:50:33.266Z,58
2023-04-16T02:52:03.735Z,58
2023-04-16T02:54:06.152Z,58
2023-04-16T02:55:36.583Z,58
2023-04-16T02:57:07.046Z,58
2023-04-16T02:58:37.392Z,58
2023-04-16T03:00:07.806Z,58
2023-04-16T03:01:38.205Z,58
2023-04-16T03:03:08.586Z,58
2023-04-16T03:05:10.942Z,58
2023-04-16T03:06:41.359Z,58
2023-04-16T03:08:11.838Z,58
2023-04-16T03:09:42.218Z,58
2023-04-16T03:11:12.624Z,58
2023-04-16T03:12:43.076Z,58
2023-04-16T03:14:13.463Z,58
2023-04-16T03:15:43.912Z,58
2023-04-16T03:17:14.341Z,58
2023-04-16T03:19:16.764Z,59
2023-04-16T03:20:47.172Z,58
2023-04-16T03:22:17.523Z,58
2023-04-16T03:23:47.942Z,58
2023-04-16T03:25:18.341Z,58
2023-04-16T03:26:48.658Z,59
2023-04-16T03:28:19.035Z,58
2023-04-16T03:30:21.454Z,58
2023-04-16T03:31:51.899Z,59
2023-04-16T03:33:22.318Z,58
2023-04-16T03:34:52.707Z,58
2023-04-16T03:36:23.034Z,59
2023-04-16T03:37:53.487Z,58
2023-04-16T03:39:55.941Z,58
2023-04-16T03:41:26.337Z,58
2023-04-16T03:42:56.706Z,58
2023-04-16T03:44:27.169Z,58
2023-04-16T03:45:57.495Z,58
2023-04-16T03:47:28.013Z,59
2023-04-16T03:48:58.326Z,59
2023-04-16T03:50:28.757Z,58
2023-04-16T03:51:59.169Z,59
2023-04-16T03:53:29.551Z,59
2023-04-16T03:55:31.959Z,59
2023-04-16T03:57:02.424Z,59
2023-04-16T03:58:32.741Z,59
2023-04-16T04:00:35.167Z,59
2023-04-16T04:02:05.672Z,58
2023-04-16T04:03:36.207Z,59
2023-04-16T04:05:38.381Z,59
2023-04-16T04:07:08.797Z,59
2023-04-16T04:08:39.162Z,59
2023-04-16T04:10:09.549Z,59
2023-04-16T04:11:39.960Z,59
2023-04-16T04:13:10.319Z,59
2023-04-16T04:15:12.744Z,59
2023-04-16T04:16:43.169Z,59
2023-04-16T04:18:13.537Z,59
2023-04-16T04:20:15.831Z,58
2023-04-16T04:22:18.264Z,60
2023-04-16T04:24:20.696Z,59
2023-04-16T04:25:51.165Z,59
2023-04-16T04:27:21.468Z,58
2023-04-16T04:28:51.857Z,58
2023-04-16T04:30:22.257Z,58
2023-04-16T04:31:52.754Z,58
2023-04-16T04:33:23.069Z,58
2023-04-16T04:34:53.423Z,58
2023-04-16T04:36:23.855Z,58
2023-04-16T04:37:54.198Z,58
2023-04-16T04:39:24.593Z,59
2023-04-16T04:40:55.006Z,59
2023-04-16T04:42:25.428Z,59
2023-04-16T04:43:55.875Z,58
2023-04-16T04:45:26.277Z,58
2023-04-16T04:46:56.674Z,59
2023-04-16T04:48:27.017Z,58
2023-04-16T04:49:57.417Z,59
2023-04-16T04:51:27.856Z,59
2023-04-16T04:52:58.199Z,59
2023-04-16T04:55:00.628Z,59
2023-04-16T04:56:31.057Z,59
2023-04-16T04:58:01.498Z,59
2023-04-16T04:59:31.880Z,59
2023-04-16T05:01:02.394Z,59
2023-04-16T05:02:32.876Z,59
2023-04-16T05:04:35.247Z,59
2023-04-16T05:06:05.602Z,59
2023-04-16T05:07:35.988Z,59
2023-04-16T05:09:06.336Z,59
2023-04-16T05:10:36.666Z,59
2023-04-16T05:12:07.133Z,59
2023-04-16T05:14:09.549Z,59
2023-04-16T05:15:39.980Z,59
2023-04-16T05:17:10.324Z,59
2023-04-16T05:18:40.709Z,59
2023-04-16T05:20:11.151Z,59
2023-04-16T05:21:41.551Z,59
2023-04-16T05:23:11.953Z,59
2023-04-16T05:25:14.340Z,59
2023-04-16T05:26:44.756Z,59
2023-04-16T05:28:15.171Z,59
2023-04-16T05:29:45.499Z,59
2023-04-16T05:31:15.969Z,59
2023-04-16T05:32:46.210Z,59
2023-04-16T05:34:48.604Z,59
2023-04-16T05:36:19.019Z,59
2023-04-16T05:37:49.379Z,60
2023-04-16T05:39:19.789Z,59
2023-04-16T05:40:50.175Z,59
2023-04-16T05:42:20.595Z,60
2023-04-16T05:43:51.041Z,59
2023-04-16T05:45:21.425Z,59
2023-04-16T05:46:51.750Z,59
2023-04-16T05:48:22.096Z,59
2023-04-16T05:49:52.481Z,60
2023-04-16T05:51:22.907Z,59
2023-04-16T05:52:53.246Z,60
2023-04-16T05:54:23.671Z,59
2023-04-16T05:55:54.064Z,60
2023-04-16T05:57:24.465Z,60
2023-04-16T05:58:54.854Z,59
2023-04-16T06:00:57.268Z,59
2023-04-16T06:02:27.768Z,59
2023-04-16T06:03:58.135Z,60
2023-04-16T06:05:28.479Z,59
2023-04-16T06:06:58.844Z,59
2023-04-16T06:08:29.205Z,59
2023-04-16T06:09:59.624Z,59
2023-04-16T06:11:30.004Z,60
2023-04-16T06:13:00.458Z,60
2023-04-16T06:14:30.843Z,60
2023-04-16T06:16:01.281Z,60
2023-04-16T06:17:31.710Z,59
2023-04-16T06:19:02.163Z,59
2023-04-16T06:20:32.517Z,59
2023-04-16T06:22:02.944Z,59
2023-04-16T06:23:33.348Z,60
2023-04-16T06:25:03.708Z,60
2023-04-16T06:26:34.094Z,59
2023-04-16T06:28:04.470Z,60
2023-04-16T06:30:06.888Z,60
2023-04-16T06:31:37.347Z,60
2023-04-16T06:33:07.667Z,60
2023-04-16T06:34:38.038Z,60
2023-04-16T06:36:08.453Z,60
2023-04-16T06:37:38.798Z,60
2023-04-16T06:39:09.453Z,60
2023-04-16T06:40:39.556Z,60
2023-04-16T06:42:09.968Z,60
2023-04-16T06:43:40.362Z,60
2023-04-16T06:45:10.680Z,60
2023-04-16T06:46:41.131Z,60
2023-04-16T06:48:11.518Z,60
2023-04-16T06:49:41.922Z,60
2023-04-16T06:51:12.369Z,60
2023-04-16T06:52:42.786Z,60
2023-04-16T06:54:13.246Z,60
2023-04-16T06:56:15.696Z,60
2023-04-16T06:57:46.084Z,60
2023-04-16T06:59:16.436Z,60
2023-04-16T07:00:46.840Z,60
2023-04-16T07:02:17.322Z,60
2023-04-16T07:03:47.796Z,60
2023-04-16T07:05:17.955Z,61
2023-04-16T07:06:48.295Z,60
2023-04-16T07:08:18.628Z,60
2023-04-16T07:09:49.029Z,61
2023-04-16T07:11:19.459Z,60
2023-04-16T07:12:49.865Z,60
2023-04-16T07:14:20.218Z,60
2023-04-16T07:15:50.705Z,60
2023-04-16T07:17:21.133Z,61
2023-04-16T07:18:51.459Z,60
2023-04-16T07:20:21.856Z,60
2023-04-16T07:21:52.286Z,60
2023-04-16T07:23:22.714Z,60
2023-04-16T07:24:53.184Z,60
2023-04-16T07:26:23.660Z,61
2023-04-16T07:27:54.073Z,61
2023-04-16T07:29:24.429Z,60
2023-04-16T07:30:54.823Z,60
2023-04-16T07:32:25.346Z,60
2023-04-16T07:33:55.713Z,60
2023-04-16T07:35:26.093Z,60
2023-04-16T07:36:56.478Z,59
2023-04-16T07:38:26.804Z,60
2023-04-16T07:39:57.446Z,60
2023-04-16T07:41:27.634Z,60
2023-04-16T07:42:58.066Z,61
2023-04-16T07:44:28.464Z,60
2023-04-16T07:45:58.864Z,60
2023-04-16T07:47:29.263Z,60
2023-04-16T07:48:59.653Z,60
2023-04-16T07:50:30.096Z,60
2023-04-16T07:52:32.514Z,62
2023-04-16T07:54:02.755Z,60
2023-04-16T07:55:33.194Z,61
2023-04-16T07:57:03.608Z,61
2023-04-16T07:58:34.010Z,60
2023-04-16T08:00:04.365Z,60
2023-04-16T08:02:06.846Z,59
2023-04-16T08:03:37.316Z,60
2023-04-16T08:05:07.575Z,60
2023-04-16T08:06:37.934Z,60
2023-04-16T08:08:08.252Z,60
2023-04-16T08:09:38.621Z,60
2023-04-16T08:11:41.073Z,60
2023-04-16T08:13:11.508Z,60
2023-04-16T08:14:41.915Z,60
2023-04-16T08:16:12.345Z,60
2023-04-16T08:17:42.756Z,60
2023-04-16T08:19:13.344Z,60
2023-04-16T08:20:43.514Z,60
2023-04-16T08:22:45.942Z,60
2023-04-16T08:24:16.350Z,60
2023-04-16T08:25:46.712Z,60
2023-04-16T08:27:49.172Z,60
2023-04-16T08:29:19.522Z,60
2023-04-16T08:30:49.891Z,60
2023-04-16T08:32:20.332Z,60
2023-04-16T08:33:50.723Z,60
2023-04-16T08:35:21.080Z,60
2023-04-16T08:37:23.534Z,60
2023-04-16T08:38:53.925Z,60
2023-04-16T08:40:24.291Z,60
2023-04-16T08:41:54.670Z,60
2023-04-16T08:43:25.093Z,60
2023-04-16T08:44:55.461Z,60
2023-04-16T08:46:25.898Z,60
2023-04-16T08:47:56.160Z,60
2023-04-16T08:49:26.511Z,60
2023-04-16T08:50:56.892Z,60
2023-04-16T08:52:27.304Z,60
2023-04-16T08:53:57.715Z,60
2023-04-16T08:55:28.156Z,61
2023-04-16T08:56:58.564Z,58
2023-04-16T08:58:28.980Z,60
2023-04-16T08:59:59.355Z,60
2023-04-16T09:01:29.766Z,59
2023-04-16T09:03:00.265Z,58
2023-04-16T09:04:30.616Z,58
2023-04-16T09:06:01.012Z,59
2023-04-16T09:07:31.388Z,59
2023-04-16T09:09:01.840Z,59
2023-04-16T09:10:32.261Z,59
2023-04-16T09:12:02.649Z,60
2023-04-16T09:13:33.080Z,61
2023-04-16T09:15:03.578Z,62
2023-04-16T09:16:33.948Z,62
2023-04-16T09:18:04.339Z,60
2023-04-16T09:19:34.749Z,61
2023-04-16T09:21:05.218Z,61
2023-04-16T09:23:07.644Z,67
2023-04-16T09:24:38.059Z,66
2023-04-16T09:26:08.531Z,63
2023-04-16T09:27:38.897Z,62
2023-04-16T09:29:09.456Z,63
2023-04-16T09:30:39.711Z,62
2023-04-16T09:32:42.227Z,62
2023-04-16T09:34:12.624Z,63
2023-04-16T09:35:43.096Z,63
2023-04-16T09:37:45.520Z,63
2023-04-16T09:39:15.929Z,63
2023-04-16T09:40:46.398Z,63
2023-04-16T09:42:16.775Z,63
2023-04-16T09:43:47.103Z,62
2023-04-16T09:45:17.561Z,62
2023-04-16T09:47:20.017Z,63
2023-04-16T09:48:50.409Z,62
2023-04-16T09:50:20.883Z,62
2023-04-16T09:52:23.293Z,61
2023-04-16T09:53:53.719Z,61
2023-04-16T09:55:24.065Z,61
2023-04-16T09:56:54.462Z,62
2023-04-16T09:58:24.782Z,62
2023-04-16T09:59:55.259Z,62
2023-04-16T10:01:25.679Z,63
2023-04-16T10:02:56.136Z,66
2023-04-16T10:04:26.364Z,65
2023-04-16T10:05:56.773Z,68
2023-04-16T10:07:27.175Z,67
2023-04-16T10:08:57.536Z,68
2023-04-16T10:10:27.850Z,68
2023-04-16T10:11:58.243Z,67
2023-04-16T10:13:28.670Z,66
2023-04-16T10:14:59.088Z,65
2023-04-16T10:16:29.574Z,65
2023-04-16T10:18:31.981Z,66
2023-04-16T10:20:02.297Z,67
2023-04-16T10:21:32.755Z,67
2023-04-16T10:23:35.179Z,67
2023-04-16T10:25:05.605Z,67
2023-04-16T10:26:36.056Z,66
2023-04-16T10:28:06.448Z,67
2023-04-16T10:29:36.847Z,68
2023-04-16T10:31:07.305Z,67
2023-04-16T10:33:09.692Z,67
2023-04-16T10:34:40.088Z,68
2023-04-16T10:36:10.545Z,68
2023-04-16T10:37:40.903Z,68
2023-04-16T10:39:11.839Z,68
2023-04-16T10:40:41.678Z,68
2023-04-16T10:42:44.091Z,68
2023-04-16T10:44:14.526Z,68
2023-04-16T10:45:44.870Z,67
2023-04-16T10:47:15.264Z,68
2023-04-16T10:50:16.042Z,68
2023-04-16T10:51:46.470Z,67
2023-04-16T10:53:48.905Z,67
2023-04-16T10:55:19.301Z,67
2023-04-16T10:56:49.798Z,68
2023-04-16T10:58:20.140Z,68
2023-04-16T10:59:50.559Z,68
2023-04-16T11:01:20.935Z,67
2023-04-16T11:03:23.611Z,68
2023-04-16T11:04:53.910Z,68
2023-04-16T11:06:24.261Z,68
2023-04-16T11:08:26.684Z,68
2023-04-16T11:09:57.108Z,68
2023-04-16T11:11:27.561Z,67
2023-04-16T11:13:29.982Z,67
2023-04-16T11:15:00.449Z,67
2023-04-16T11:17:02.859Z,67
2023-04-16T11:18:33.284Z,67
2023-04-16T11:20:03.643Z,68
2023-04-16T11:22:06.099Z,67
2023-04-16T11:23:36.499Z,67
2023-04-16T11:25:06.942Z,67
2023-04-16T11:26:37.335Z,67
2023-04-16T11:28:07.765Z,67
2023-04-16T11:29:38.168Z,67
2023-04-16T11:31:08.767Z,67
2023-04-16T11:33:11.052Z,67
2023-04-16T11:34:41.382Z,67
2023-04-16T11:36:11.848Z,67
2023-04-16T11:37:42.267Z,67
2023-04-16T11:39:12.894Z,66
2023-04-16T11:41:15.134Z,67
2023-04-16T11:42:45.555Z,66
2023-04-16T11:44:15.952Z,66
2023-04-16T11:45:46.406Z,66
2023-04-16T11:47:16.867Z,66
2023-04-16T11:48:47.198Z,66
2023-04-16T11:50:17.561Z,66
2023-04-16T11:52:19.996Z,66
2023-04-16T11:53:50.451Z,66
2023-04-16T11:55:20.890Z,66
2023-04-16T11:56:51.265Z,66
2023-04-16T11:58:21.677Z,66
2023-04-16T12:00:01.185Z,66
2023-04-16T12:01:22.458Z,66
2023-04-16T12:03:24.992Z,66
2023-04-16T12:04:55.356Z,66
2023-04-16T12:06:25.794Z,66
2023-04-16T12:07:56.152Z,66
2023-04-16T12:09:26.460Z,66
2023-04-16T12:10:56.862Z,66
2023-04-16T12:12:27.318Z,66
2023-04-16T12:13:57.496Z,66
2023-04-16T12:15:27.809Z,65
2023-04-16T12:16:58.284Z,66
2023-04-16T12:19:00.610Z,65
2023-04-16T12:20:31.026Z,65
2023-04-16T12:22:01.426Z,65
2023-04-16T12:23:31.778Z,66
2023-04-16T12:25:02.226Z,66
2023-04-16T12:26:32.455Z,65
2023-04-16T12:28:34.885Z,65
2023-04-16T12:30:05.193Z,65
2023-04-16T12:31:35.560Z,65
2023-04-16T12:33:37.978Z,65
2023-04-16T12:35:08.300Z,65
2023-04-16T12:36:38.754Z,65
2023-04-16T12:38:09.152Z,65
2023-04-16T12:39:39.558Z,65
2023-04-16T12:41:09.941Z,65
2023-04-16T12:43:12.354Z,65
2023-04-16T12:44:42.778Z,65
2023-04-16T12:46:13.139Z,65
2023-04-16T12:48:15.568Z,65
2023-04-16T12:49:45.973Z,65
2023-04-16T12:51:16.441Z,65
2023-04-16T12:53:18.866Z,65
2023-04-16T12:54:49.200Z,65
2023-04-16T12:56:19.660Z,65
2023-04-16T12:58:22.071Z,65
2023-04-16T12:59:52.497Z,65
2023-04-16T13:01:22.988Z,65
2023-04-16T13:03:25.449Z,65
2023-04-16T13:04:55.815Z,65
2023-04-16T13:06:26.169Z,65
2023-04-16T13:08:28.603Z,65
2023-04-16T13:09:59.007Z,65
2023-04-16T13:11:29.407Z,65
2023-04-16T13:13:31.808Z,65
2023-04-16T13:15:02.229Z,65
2023-04-16T13:16:32.736Z,65
2023-04-16T13:18:03.178Z,65
2023-04-16T13:19:33.646Z,65
2023-04-16T13:21:36.116Z,65
2023-04-16T13:23:38.519Z,65
2023-04-16T13:25:08.837Z,65
2023-04-16T13:26:39.224Z,65
2023-04-16T13:28:09.583Z,65
2023-04-16T13:29:39.997Z,65
2023-04-16T13:31:10.497Z,65
2023-04-16T13:32:40.898Z,65
2023-04-16T13:34:43.304Z,65
2023-04-16T13:36:13.560Z,65
2023-04-16T13:38:16.035Z,65
2023-04-16T13:39:46.404Z,65
2023-04-16T13:41:16.764Z,65
2023-04-16T13:42:47.210Z,65
2023-04-16T13:44:17.565Z,65
2023-04-16T13:45:48.019Z,65
2023-04-16T13:47:18.455Z,65
2023-04-16T13:49:20.885Z,65
2023-04-16T13:50:51.281Z,65
2023-04-16T13:52:21.638Z,65
2023-04-16T13:53:52.038Z,65
2023-04-16T13:55:22.459Z,65
2023-04-16T13:56:52.868Z,65
2023-04-16T13:58:23.311Z,65
2023-04-16T13:59:53.719Z,65
2023-04-16T14:01:24.237Z,65
2023-04-16T14:02:54.659Z,65
2023-04-16T14:04:57.017Z,65
2023-04-16T14:06:27.349Z,65
2023-04-16T14:07:57.809Z,65
2023-04-16T14:10:00.248Z,65
2023-04-16T14:11:30.650Z,65
2023-04-16T14:13:01.123Z,65
2023-04-16T14:15:03.552Z,65
2023-04-16T14:16:33.948Z,65
2023-04-16T14:18:04.350Z,65
2023-04-16T14:20:06.830Z,65
2023-04-16T14:21:37.158Z,65
2023-04-16T14:23:07.521Z,65
2023-04-16T14:24:37.915Z,65
2023-04-16T14:26:08.323Z,65
2023-04-16T14:27:38.680Z,65
2023-04-16T14:29:09.236Z,66
2023-04-16T14:30:39.399Z,66
2023-04-16T14:32:09.749Z,65
2023-04-16T14:33:40.146Z,65
2023-04-16T14:35:10.563Z,65
2023-04-16T14:36:40.979Z,65
2023-04-16T14:38:11.308Z,65
2023-04-16T14:40:13.761Z,66
2023-04-16T14:41:44.144Z,66
2023-04-16T14:43:14.789Z,65
2023-04-16T14:44:45.199Z,66
2023-04-16T14:46:15.586Z,65
2023-04-16T14:47:46.258Z,66
2023-04-16T14:49:48.399Z,66
2023-04-16T14:51:18.748Z,65
2023-04-16T14:52:49.208Z,65
2023-04-16T14:54:51.613Z,65
2023-04-16T14:56:22.034Z,65
2023-04-16T14:57:52.657Z,65
2023-04-16T14:59:55.035Z,65
2023-04-16T15:01:25.526Z,65
2023-04-16T15:02:55.990Z,65
2023-04-16T15:04:58.368Z,65
2023-04-16T15:06:28.748Z,65
2023-04-16T15:07:59.132Z,65
2023-04-16T15:10:01.551Z,65
2023-04-16T15:11:31.983Z,65
2023-04-16T15:13:02.423Z,65
2023-04-16T15:14:32.816Z,65
2023-04-16T15:16:03.125Z,65
2023-04-16T15:17:33.543Z,65
2023-04-16T15:19:05.063Z,65
2023-04-16T15:20:34.187Z,65
2023-04-16T15:22:04.633Z,65
2023-04-16T15:23:35.061Z,65
2023-04-16T15:25:05.439Z,65
2023-04-16T15:26:35.858Z,65
2023-04-16T15:28:06.287Z,65
2023-04-16T15:29:36.736Z,66
2023-04-16T15:31:07.231Z,64
2023-04-16T15:32:37.620Z,64
2023-04-16T15:34:08.169Z,64
2023-04-16T15:36:10.432Z,64
2023-04-16T15:37:40.846Z,64
2023-04-16T15:39:11.449Z,64
2023-04-16T15:41:13.643Z,64
2023-04-16T15:42:44.048Z,64
2023-04-16T15:44:14.699Z,64
2023-04-16T15:45:45.097Z,64
2023-04-16T15:47:15.515Z,64
2023-04-16T15:48:45.922Z,64
2023-04-16T15:50:16.256Z,64
2023-04-16T15:51:46.575Z,64
2023-04-16T15:53:16.945Z,64
2023-04-16T15:55:19.371Z,64
2023-04-16T15:56:49.778Z,64
2023-04-16T15:58:20.162Z,64
2023-04-16T16:00:05.746Z,64
2023-04-16T16:01:20.960Z,65
2023-04-16T16:02:51.513Z,64
2023-04-16T16:04:21.956Z,64
2023-04-16T16:06:24.266Z,65
2023-04-16T16:07:54.655Z,65
2023-04-16T16:09:25.158Z,65
2023-04-16T16:11:27.560Z,65
2023-04-16T16:12:57.954Z,65
2023-04-16T16:14:28.304Z,65
2023-04-16T16:15:58.762Z,65
2023-04-16T16:17:29.161Z,65
2023-04-16T16:18:59.531Z,65
2023-04-16T16:21:01.961Z,65
2023-04-16T16:22:32.332Z,65
2023-04-16T16:24:02.993Z,65
2023-04-16T16:25:33.196Z,65
2023-04-16T16:27:03.530Z,65
2023-04-16T16:28:33.938Z,65
2023-04-16T16:30:04.354Z,65
2023-04-16T16:31:34.826Z,65
2023-04-16T16:33:05.314Z,66
2023-04-16T16:35:07.641Z,66
2023-04-16T16:36:38.096Z,66
2023-04-16T16:38:08.416Z,66
2023-04-16T16:39:39.123Z,66
2023-04-16T16:41:09.216Z,66
2023-04-16T16:42:39.765Z,66
2023-04-16T16:44:10.025Z,66
2023-04-16T16:46:12.459Z,66
2023-04-16T16:47:42.861Z,66
2023-04-16T16:49:13.330Z,66
2023-04-16T16:50:43.591Z,65
2023-04-16T16:52:14.025Z,66
2023-04-16T16:53:44.385Z,66
2023-04-16T16:55:46.795Z,66
2023-04-16T16:57:17.218Z,66
2023-04-16T16:58:47.562Z,66
2023-04-16T17:00:17.956Z,66
2023-04-16T17:01:48.279Z,66
2023-04-16T17:03:18.740Z,66
2023-04-16T17:04:49.009Z,66
2023-04-16T17:06:19.479Z,66
2023-04-16T17:07:49.871Z,66
2023-04-16T17:09:20.329Z,66
2023-04-16T17:10:50.675Z,66
2023-04-16T17:12:21.098Z,66
2023-04-16T17:13:51.481Z,66
2023-04-16T17:15:22.117Z,66
2023-04-16T17:16:52.311Z,66
2023-04-16T17:18:22.670Z,66
2023-04-16T17:19:53.001Z,66
2023-04-16T17:21:23.419Z,66
2023-04-16T17:22:53.799Z,66
2023-04-16T17:24:24.157Z,66
2023-04-16T17:25:54.454Z,66
2023-04-16T17:27:24.712Z,66
2023-04-16T17:28:55.144Z,66
2023-04-16T17:30:25.535Z,66
2023-04-16T17:31:55.849Z,66
2023-04-16T17:33:58.262Z,66
2023-04-16T17:36:00.676Z,66
2023-04-16T17:37:31.107Z,66
2023-04-16T17:39:01.523Z,66
2023-04-16T17:40:31.843Z,66
2023-04-16T17:42:02.251Z,66
2023-04-16T17:43:32.609Z,66
2023-04-16T17:45:03.018Z,66
2023-04-16T17:46:33.474Z,66
2023-04-16T17:48:03.883Z,66
2023-04-16T17:49:34.200Z,66
2023-04-16T17:51:36.625Z,66
2023-04-16T17:53:07.044Z,66
2023-04-16T17:54:37.544Z,66
2023-04-16T17:56:39.779Z,66
2023-04-16T17:58:42.119Z,66
2023-04-16T18:00:12.413Z,66
2023-04-16T18:01:42.907Z,66
2023-04-16T18:03:13.269Z,66
2023-04-16T18:04:43.503Z,66
2023-04-16T18:06:13.901Z,66
2023-04-16T18:07:44.291Z,66
2023-04-16T18:09:14.590Z,66
2023-04-16T18:10:44.974Z,66
2023-04-16T18:12:15.350Z,66
2023-04-16T18:13:45.622Z,66
2023-04-16T18:15:48.093Z,66
2023-04-16T18:17:18.462Z,66
2023-04-16T18:18:48.824Z,66
2023-04-16T18:20:51.258Z,66
2023-04-16T18:22:21.702Z,66
2023-04-16T18:23:52.129Z,66
2023-04-16T18:25:32.182Z,66
2023-04-16T18:26:53.584Z,66
2023-04-16T18:28:24.561Z,66
2023-04-16T18:29:54.746Z,66
2023-04-16T18:31:24.197Z,66
2023-04-16T18:33:06.368Z,66
2023-04-16T18:34:24.892Z,66
2023-04-16T18:36:27.350Z,66
2023-04-16T18:37:57.720Z,66
2023-04-16T18:39:28.179Z,66
2023-04-16T18:41:30.618Z,66
2023-04-16T18:43:01.039Z,66
2023-04-16T18:44:31.374Z,66
2023-04-16T18:46:01.875Z,66
2023-04-16T18:47:34.399Z,66
2023-04-16T18:49:02.427Z,66
2023-04-16T18:50:32.793Z,66
2023-04-16T18:52:03.126Z,66
2023-04-16T18:53:33.399Z,66
2023-04-16T18:55:35.827Z,66
2023-04-16T18:57:06.157Z,66
2023-04-16T18:58:36.516Z,66
2023-04-16T19:00:06.873Z,66
2023-04-16T19:01:37.296Z,66
2023-04-16T19:03:07.809Z,66
2023-04-16T19:04:38.222Z,66
2023-04-16T19:06:40.354Z,66
2023-04-16T19:08:42.820Z,66
2023-04-16T19:10:13.185Z,66
2023-04-16T19:11:43.607Z,66
2023-04-16T19:13:13.876Z,66
2023-04-16T19:15:16.193Z,66
2023-04-16T19:16:46.561Z,66
2023-04-16T19:18:16.821Z,66
2023-04-16T19:19:47.172Z,66
2023-04-16T19:21:17.571Z,66
2023-04-16T19:22:47.881Z,66
2023-04-16T19:24:18.184Z,66
2023-04-16T19:25:48.504Z,66
2023-04-16T19:27:18.942Z,66
2023-04-16T19:28:49.338Z,66
2023-04-16T19:30:19.851Z,66
2023-04-16T19:32:22.095Z,66
2023-04-16T19:34:24.573Z,66
2023-04-16T19:35:54.941Z,66
2023-04-16T19:37:25.377Z,66
2023-04-16T19:38:55.763Z,66
2023-04-16T19:40:26.134Z,66
2023-04-16T19:41:56.505Z,66
2023-04-16T19:43:27.617Z,66
2023-04-16T19:44:57.392Z,66
2023-04-16T19:46:59.842Z,66
2023-04-16T19:48:30.231Z,66
2023-04-16T19:50:00.519Z,66
2023-04-16T19:51:30.880Z,66
2023-04-16T19:53:01.470Z,66
2023-04-16T19:54:31.827Z,66
2023-04-16T19:56:02.335Z,66
2023-04-16T19:58:04.689Z,66
2023-04-16T19:59:35.139Z,66
2023-04-16T20:01:05.620Z,66
2023-04-16T20:03:08.165Z,66
2023-04-16T20:04:38.490Z,66
2023-04-16T20:06:08.901Z,66
2023-04-16T20:08:11.316Z,66
2023-04-16T20:09:41.736Z,66
2023-04-16T20:11:12.106Z,66
2023-04-16T20:12:42.459Z,66
2023-04-16T20:14:12.797Z,66
2023-04-16T20:15:43.129Z,66
2023-04-16T20:17:13.599Z,66
2023-04-16T20:18:43.979Z,66
2023-04-16T20:20:14.315Z,66
2023-04-16T20:22:16.744Z,66
2023-04-16T20:23:47.186Z,66
2023-04-16T20:25:17.622Z,66
2023-04-16T20:27:20.051Z,66
2023-04-16T20:28:50.468Z,66
2023-04-16T20:30:20.832Z,66
2023-04-16T20:32:24.093Z,66
2023-04-16T20:33:53.695Z,66
2023-04-16T20:35:24.038Z,66
2023-04-16T20:37:26.447Z,66
2023-04-16T20:38:56.871Z,66
2023-04-16T20:40:27.245Z,66
2023-04-16T20:42:29.668Z,66
2023-04-16T20:44:00.000Z,66
2023-04-16T20:45:30.462Z,66
2023-04-16T20:47:32.902Z,66
2023-04-16T20:49:03.458Z,66
2023-04-16T20:50:33.647Z,66
2023-04-16T20:52:04.040Z,66
2023-04-16T20:53:34.453Z,66
2023-04-16T20:55:04.778Z,66
2023-04-16T20:56:35.160Z,66
2023-04-16T20:58:05.512Z,66
2023-04-16T20:59:35.926Z,66
2023-04-16T21:01:06.279Z,66
2023-04-16T21:02:36.882Z,66
2023-04-16T21:04:07.256Z,66
2023-04-16T21:05:37.443Z,66
2023-04-16T21:07:39.870Z,66
2023-04-16T21:09:10.396Z,66
2023-04-16T21:10:40.645Z,66
2023-04-16T21:12:11.028Z,66
2023-04-16T21:13:41.452Z,66
2023-04-16T21:15:11.810Z,66
2023-04-16T21:17:14.222Z,66
2023-04-16T21:18:44.555Z,66
2023-04-16T21:20:15.037Z,66
2023-04-16T21:21:45.394Z,66
2023-04-16T21:23:15.729Z,66
2023-04-16T21:24:46.126Z,66
2023-04-16T21:26:16.489Z,66
2023-04-16T21:27:46.890Z,66
2023-04-16T21:29:17.300Z,66
2023-04-16T21:30:47.757Z,66
2023-04-16T21:32:50.204Z,66
2023-04-16T21:34:20.480Z,66
2023-04-16T21:35:50.874Z,66
2023-04-16T21:37:21.235Z,66
2023-04-16T21:38:51.562Z,66
2023-04-16T21:40:21.954Z,66
2023-04-16T21:41:52.308Z,66
2023-04-16T21:43:22.714Z,66
2023-04-16T21:44:53.122Z,66
2023-04-16T21:46:23.507Z,66
2023-04-16T21:47:53.895Z,66
2023-04-16T21:49:24.299Z,66
2023-04-16T21:50:54.762Z,66
2023-04-16T21:52:25.123Z,66
2023-04-16T21:53:55.548Z,66
2023-04-16T21:55:25.970Z,66
2023-04-16T21:56:56.295Z,66
2023-04-16T21:58:26.694Z,66
2023-04-16T21:59:57.035Z,66
2023-04-16T22:01:27.606Z,66
2023-04-16T22:02:57.946Z,66
2023-04-16T22:04:28.277Z,66
2023-04-16T22:05:58.720Z,66
2023-04-16T22:07:29.066Z,66
2023-04-16T22:08:59.451Z,66
2023-04-16T22:10:29.841Z,66
2023-04-16T22:12:00.318Z,66
2023-04-16T22:14:02.752Z,66
2023-04-16T22:15:33.159Z,66
2023-04-16T22:17:03.526Z,66
2023-04-16T22:18:33.961Z,66
2023-04-16T22:20:04.209Z,66
2023-04-16T22:21:34.609Z,67
2023-04-16T22:23:37.001Z,66
2023-04-16T22:25:07.325Z,66
2023-04-16T22:26:37.674Z,66
2023-04-16T22:28:08.069Z,67
2023-04-16T22:29:38.486Z,66
2023-04-16T22:31:08.958Z,67
2023-04-16T22:32:39.343Z,67
2023-04-16T22:34:09.633Z,67
2023-04-16T22:35:39.926Z,66